DLH3FS EDDM-LOWI
Flight info
| Callsign | DLH3FS |
|---|---|
| Flight time | 0h 26m |
| Altitude | 15000 |
| Route | TURBU7S TURBU Y107 RTT RTT1B |
| Aircraft | A321/M-SDE3FGHIRWY/LB1 |
Departure
| Time | 2026-05-06 19:15 |
|---|---|
| Airport | Munich Airport (EDDM) |
Arrival
| Time | 2026-05-06 19:42 |
|---|---|
| Airport | Innsbruck Airport (LOWI) |
| Time | Latitude | Longitude | Altitude | Speed | Heading |
|---|---|---|---|---|---|
| 2026-05-06 18:47 | 48.35657 | 11.79716 | 1470 ft | 0 kts | 83° |
| 2026-05-06 19:06 | 48.35657 | 11.79714 | 1470 ft | 1 kts | 83° |
| 2026-05-06 19:06 | 48.35655 | 11.79692 | 1470 ft | 2 kts | 83° |
| 2026-05-06 19:07 | 48.35653 | 11.79670 | 1470 ft | 2 kts | 83° |
| 2026-05-06 19:07 | 48.35652 | 11.79655 | 1470 ft | 2 kts | 83° |
| 2026-05-06 19:07 | 48.35650 | 11.79626 | 1471 ft | 2 kts | 83° |
| 2026-05-06 19:07 | 48.35648 | 11.79603 | 1471 ft | 2 kts | 83° |
| 2026-05-06 19:08 | 48.35646 | 11.79580 | 1471 ft | 2 kts | 96° |
| 2026-05-06 19:08 | 48.35653 | 11.79560 | 1471 ft | 2 kts | 141° |
| 2026-05-06 19:08 | 48.35663 | 11.79552 | 1471 ft | 0 kts | 170° |
| 2026-05-06 19:08 | 48.35670 | 11.79551 | 1471 ft | 0 kts | 174° |
| 2026-05-06 19:09 | 48.35671 | 11.79551 | 1471 ft | 0 kts | 174° |
| 2026-05-06 19:10 | 48.35670 | 11.79551 | 1471 ft | 0 kts | 174° |
| 2026-05-06 19:11 | 48.35657 | 11.79550 | 1471 ft | 7 kts | 193° |
| 2026-05-06 19:11 | 48.35556 | 11.79503 | 1472 ft | 24 kts | 173° |
| 2026-05-06 19:11 | 48.35384 | 11.79534 | 1473 ft | 24 kts | 175° |
| 2026-05-06 19:11 | 48.35234 | 11.79557 | 1474 ft | 18 kts | 173° |
| 2026-05-06 19:12 | 48.35101 | 11.79581 | 1474 ft | 19 kts | 174° |
| 2026-05-06 19:12 | 48.34983 | 11.79560 | 1475 ft | 13 kts | 203° |
| 2026-05-06 19:12 | 48.34908 | 11.79547 | 1475 ft | 7 kts | 175° |
| 2026-05-06 19:12 | 48.34843 | 11.79556 | 1475 ft | 13 kts | 177° |
| 2026-05-06 19:13 | 48.34723 | 11.79552 | 1475 ft | 19 kts | 176° |
| 2026-05-06 19:13 | 48.34615 | 11.79521 | 1476 ft | 14 kts | 223° |
| 2026-05-06 19:13 | 48.34561 | 11.79415 | 1476 ft | 3 kts | 233° |
| 2026-05-06 19:13 | 48.34558 | 11.79409 | 1476 ft | 4 kts | 233° |
| 2026-05-06 19:14 | 48.34502 | 11.79298 | 1477 ft | 21 kts | 233° |
| 2026-05-06 19:14 | 48.34403 | 11.79112 | 1478 ft | 17 kts | 221° |
| 2026-05-06 19:14 | 48.34371 | 11.79058 | 1478 ft | 0 kts | 265° |
| 2026-05-06 19:14 | 48.34369 | 11.79030 | 1478 ft | 19 kts | 264° |
| 2026-05-06 19:15 | 48.34320 | 11.78407 | 1481 ft | 97 kts | 263° |
| 2026-05-06 19:15 | 48.34217 | 11.77065 | 1512 ft | 156 kts | 263° |
| 2026-05-06 19:15 | 48.34098 | 11.75458 | 2238 ft | 155 kts | 264° |
| 2026-05-06 19:15 | 48.33986 | 11.73969 | 3178 ft | 140 kts | 265° |
| 2026-05-06 19:16 | 48.33786 | 11.72512 | 3771 ft | 151 kts | 250° |
| 2026-05-06 19:16 | 48.33015 | 11.71251 | 4177 ft | 187 kts | 215° |
| 2026-05-06 19:16 | 48.31639 | 11.70813 | 4682 ft | 219 kts | 191° |
| 2026-05-06 19:16 | 48.30062 | 11.70763 | 5235 ft | 238 kts | 188° |
| 2026-05-06 19:17 | 48.28344 | 11.71157 | 5832 ft | 265 kts | 161° |
| 2026-05-06 19:17 | 48.26734 | 11.72589 | 6462 ft | 283 kts | 150° |
| 2026-05-06 19:17 | 48.25075 | 11.74164 | 6798 ft | 284 kts | 158° |
| 2026-05-06 19:17 | 48.23187 | 11.75380 | 7029 ft | 306 kts | 165° |
| 2026-05-06 19:18 | 48.21164 | 11.76530 | 7597 ft | 319 kts | 165° |
| 2026-05-06 19:18 | 48.19040 | 11.77746 | 8124 ft | 334 kts | 164° |
| 2026-05-06 19:18 | 48.16885 | 11.79025 | 9025 ft | 334 kts | 162° |
| 2026-05-06 19:18 | 48.14781 | 11.80301 | 9991 ft | 331 kts | 160° |
| 2026-05-06 19:19 | 48.12645 | 11.81626 | 10858 ft | 332 kts | 160° |
| 2026-05-06 19:19 | 48.10531 | 11.82956 | 11569 ft | 337 kts | 160° |
| 2026-05-06 19:19 | 48.08374 | 11.84312 | 12237 ft | 342 kts | 160° |
| 2026-05-06 19:19 | 48.06154 | 11.85705 | 13014 ft | 343 kts | 161° |
| 2026-05-06 19:20 | 48.04036 | 11.87036 | 13891 ft | 335 kts | 161° |
| 2026-05-06 19:20 | 48.01857 | 11.88397 | 14502 ft | 336 kts | 161° |
| 2026-05-06 19:20 | 47.99718 | 11.89732 | 14815 ft | 337 kts | 161° |
| 2026-05-06 19:20 | 47.98186 | 11.90691 | 14856 ft | 337 kts | 161° |
| 2026-05-06 19:21 | 47.96032 | 11.91952 | 14852 ft | 334 kts | 168° |
| 2026-05-06 19:21 | 47.94603 | 11.92292 | 14847 ft | 329 kts | 182° |
| 2026-05-06 19:21 | 47.92442 | 11.91760 | 14854 ft | 324 kts | 203° |
| 2026-05-06 19:21 | 47.90568 | 11.89996 | 14858 ft | 322 kts | 224° |
| 2026-05-06 19:22 | 47.89256 | 11.87279 | 14867 ft | 324 kts | 240° |
| 2026-05-06 19:22 | 47.88248 | 11.84256 | 14865 ft | 325 kts | 243° |
| 2026-05-06 19:22 | 47.87309 | 11.81209 | 14867 ft | 325 kts | 244° |
| 2026-05-06 19:22 | 47.86382 | 11.78163 | 14873 ft | 325 kts | 244° |
| 2026-05-06 19:23 | 47.85451 | 11.75093 | 14879 ft | 325 kts | 244° |
| 2026-05-06 19:23 | 47.84530 | 11.72048 | 14881 ft | 327 kts | 244° |
| 2026-05-06 19:23 | 47.83582 | 11.68901 | 14885 ft | 329 kts | 244° |
| 2026-05-06 19:23 | 47.82652 | 11.65808 | 14887 ft | 329 kts | 244° |
| 2026-05-06 19:24 | 47.81717 | 11.62699 | 14888 ft | 329 kts | 244° |
| 2026-05-06 19:24 | 47.80783 | 11.59594 | 14889 ft | 329 kts | 244° |
| 2026-05-06 19:24 | 47.79857 | 11.56516 | 14889 ft | 329 kts | 244° |
| 2026-05-06 19:24 | 47.78921 | 11.53410 | 14889 ft | 329 kts | 244° |
| 2026-05-06 19:25 | 47.77979 | 11.50284 | 14889 ft | 329 kts | 244° |
| 2026-05-06 19:25 | 47.77052 | 11.47210 | 14889 ft | 329 kts | 244° |
| 2026-05-06 19:25 | 47.76106 | 11.44074 | 14889 ft | 329 kts | 244° |
| 2026-05-06 19:25 | 47.75183 | 11.41016 | 14889 ft | 329 kts | 244° |
| 2026-05-06 19:26 | 47.74231 | 11.37862 | 14888 ft | 331 kts | 244° |
| 2026-05-06 19:26 | 47.73291 | 11.34748 | 14888 ft | 333 kts | 243° |
| 2026-05-06 19:26 | 47.72346 | 11.31624 | 14889 ft | 333 kts | 243° |
| 2026-05-06 19:26 | 47.71394 | 11.28480 | 14890 ft | 333 kts | 243° |
| 2026-05-06 19:27 | 47.70452 | 11.25371 | 14886 ft | 325 kts | 243° |
| 2026-05-06 19:27 | 47.69558 | 11.22398 | 14886 ft | 308 kts | 243° |
| 2026-05-06 19:27 | 47.68702 | 11.19522 | 14887 ft | 298 kts | 243° |
| 2026-05-06 19:27 | 47.67863 | 11.16698 | 14889 ft | 298 kts | 243° |
| 2026-05-06 19:28 | 47.67035 | 11.13912 | 14889 ft | 298 kts | 243° |
| 2026-05-06 19:28 | 47.66136 | 11.11156 | 14800 ft | 297 kts | 240° |
| 2026-05-06 19:28 | 47.65178 | 11.08469 | 14678 ft | 294 kts | 234° |
| 2026-05-06 19:28 | 47.64088 | 11.05901 | 14751 ft | 295 kts | 232° |
| 2026-05-06 19:29 | 47.63602 | 11.05024 | 14780 ft | 294 kts | 225° |
| 2026-05-06 19:29 | 47.62444 | 11.03072 | 14887 ft | 295 kts | 231° |
| 2026-05-06 19:29 | 47.61208 | 11.00674 | 14910 ft | 294 kts | 225° |
| 2026-05-06 19:29 | 47.59689 | 10.98597 | 14900 ft | 293 kts | 219° |
| 2026-05-06 19:30 | 47.58139 | 10.96676 | 14894 ft | 293 kts | 219° |
| 2026-05-06 19:30 | 47.56589 | 10.94723 | 14846 ft | 290 kts | 219° |
| 2026-05-06 19:30 | 47.55074 | 10.92761 | 14478 ft | 289 kts | 220° |
| 2026-05-06 19:30 | 47.53586 | 10.90797 | 14006 ft | 290 kts | 220° |
| 2026-05-06 19:31 | 47.52081 | 10.88786 | 13324 ft | 290 kts | 221° |
| 2026-05-06 19:31 | 47.50606 | 10.86799 | 12820 ft | 288 kts | 221° |
| 2026-05-06 19:31 | 47.47667 | 10.82823 | 11817 ft | 286 kts | 221° |
| 2026-05-06 19:32 | 47.46217 | 10.80864 | 11319 ft | 285 kts | 220° |
| 2026-05-06 19:32 | 47.44545 | 10.79417 | 10822 ft | 279 kts | 192° |
| 2026-05-06 19:32 | 47.42645 | 10.79280 | 10647 ft | 268 kts | 177° |
| 2026-05-06 19:32 | 47.40841 | 10.79422 | 10631 ft | 255 kts | 177° |
| 2026-05-06 19:33 | 47.39102 | 10.79529 | 10621 ft | 247 kts | 178° |
| 2026-05-06 19:33 | 47.37389 | 10.79593 | 10614 ft | 244 kts | 179° |
| 2026-05-06 19:33 | 47.35695 | 10.79631 | 10610 ft | 244 kts | 179° |
| 2026-05-06 19:33 | 47.34018 | 10.79657 | 10607 ft | 244 kts | 180° |
| 2026-05-06 19:34 | 47.32322 | 10.79681 | 10602 ft | 241 kts | 178° |
| 2026-05-06 19:34 | 47.30741 | 10.80225 | 10564 ft | 232 kts | 147° |
| 2026-05-06 19:34 | 47.29718 | 10.81988 | 10392 ft | 234 kts | 112° |
| 2026-05-06 19:34 | 47.29511 | 10.84341 | 10085 ft | 236 kts | 88° |
| 2026-05-06 19:35 | 47.29646 | 10.86757 | 9855 ft | 234 kts | 86° |
| 2026-05-06 19:35 | 47.29787 | 10.89147 | 9633 ft | 234 kts | 87° |
| 2026-05-06 19:35 | 47.29907 | 10.91518 | 9184 ft | 233 kts | 87° |
| 2026-05-06 19:35 | 47.30011 | 10.93873 | 8771 ft | 232 kts | 88° |
| 2026-05-06 19:36 | 47.30108 | 10.96270 | 8368 ft | 232 kts | 88° |
| 2026-05-06 19:36 | 47.30197 | 10.98621 | 7981 ft | 231 kts | 88° |
| 2026-05-06 19:36 | 47.30283 | 11.00960 | 7659 ft | 229 kts | 87° |
| 2026-05-06 19:36 | 47.30363 | 11.03324 | 7442 ft | 230 kts | 88° |
| 2026-05-06 19:37 | 47.30427 | 11.05673 | 7153 ft | 229 kts | 88° |
| 2026-05-06 19:37 | 47.30382 | 11.07997 | 6950 ft | 228 kts | 100° |
| 2026-05-06 19:37 | 47.29837 | 11.10161 | 6703 ft | 225 kts | 116° |
| 2026-05-06 19:37 | 47.29412 | 11.11537 | 6479 ft | 214 kts | 114° |
| 2026-05-06 19:38 | 47.28645 | 11.14098 | 5886 ft | 199 kts | 114° |
| 2026-05-06 19:38 | 47.28101 | 11.15935 | 5359 ft | 195 kts | 114° |
| 2026-05-06 19:38 | 47.27613 | 11.17456 | 4693 ft | 171 kts | 112° |
| 2026-05-06 19:38 | 47.27133 | 11.18969 | 4388 ft | 158 kts | 111° |
| 2026-05-06 19:39 | 47.26682 | 11.20413 | 4106 ft | 153 kts | 109° |
| 2026-05-06 19:39 | 47.26270 | 11.21832 | 3734 ft | 146 kts | 108° |
| 2026-05-06 19:39 | 47.25911 | 11.23194 | 3487 ft | 142 kts | 107° |
| 2026-05-06 19:39 | 47.25610 | 11.24549 | 3282 ft | 139 kts | 103° |
| 2026-05-06 19:40 | 47.25403 | 11.25927 | 3010 ft | 136 kts | 96° |
| 2026-05-06 19:40 | 47.25362 | 11.27307 | 2819 ft | 135 kts | 92° |
| 2026-05-06 19:40 | 47.25413 | 11.28684 | 2607 ft | 135 kts | 86° |
| 2026-05-06 19:40 | 47.25572 | 11.30062 | 2414 ft | 136 kts | 85° |
| 2026-05-06 19:41 | 47.25721 | 11.31447 | 2196 ft | 138 kts | 88° |
| 2026-05-06 19:41 | 47.25868 | 11.32863 | 1973 ft | 142 kts | 91° |
| 2026-05-06 19:41 | 47.26007 | 11.34238 | 1909 ft | 109 kts | 84° |
| 2026-05-06 19:41 | 47.26090 | 11.34994 | 1904 ft | 50 kts | 80° |
| 2026-05-06 19:42 | 47.26099 | 11.35226 | 1903 ft | 13 kts | 127° |
| 2026-05-06 19:42 | 47.26010 | 11.35266 | 1903 ft | 13 kts | 171° |
| 2026-05-06 19:42 | 47.25940 | 11.35280 | 1904 ft | 7 kts | 176° |
| 2026-05-06 19:42 | 47.25902 | 11.35228 | 1904 ft | 8 kts | 256° |
| 2026-05-06 19:43 | 47.25891 | 11.35130 | 1905 ft | 10 kts | 261° |
| 2026-05-06 19:43 | 47.25881 | 11.35041 | 1905 ft | 3 kts | 251° |
| 2026-05-06 19:43 | 47.25870 | 11.35034 | 1905 ft | 0 kts | 168° |
| 2026-05-06 19:43 | 47.25857 | 11.35037 | 1905 ft | 2 kts | 171° |
| 2026-05-06 19:44 | 47.25837 | 11.35042 | 1905 ft | 3 kts | 171° |
| 2026-05-06 19:44 | 47.25831 | 11.35043 | 1905 ft | 0 kts | 171° |